createdAt,value
2022-12-03T15:13:04.433Z,19.10
2022-12-03T15:15:33.217Z,19.42
2022-12-03T15:18:01.621Z,19.72
2022-12-03T15:20:30.179Z,19.95
2022-12-03T15:22:58.558Z,20.13
2022-12-03T15:25:27.040Z,20.27
2022-12-03T15:27:55.521Z,20.42
2022-12-03T15:30:23.800Z,20.53
2022-12-03T15:32:52.224Z,20.62
2022-12-03T15:35:20.664Z,20.69
2022-12-03T15:37:49.143Z,20.80
2022-12-03T15:40:17.834Z,20.88
2022-12-03T15:42:46.113Z,20.94
2022-12-03T15:45:15.558Z,21.00
2022-12-03T15:47:44.438Z,21.03
2022-12-03T15:50:14.351Z,21.09
2022-12-03T15:52:42.795Z,21.14
2022-12-03T15:55:11.382Z,21.19
2022-12-03T15:57:39.815Z,21.21
2022-12-03T16:00:09.513Z,21.25
2022-12-03T16:02:37.827Z,21.30
2022-12-03T16:05:11.966Z,21.32
2022-12-03T16:07:41.210Z,21.29
2022-12-03T16:10:11.084Z,21.32
2022-12-03T16:12:39.562Z,21.35
2022-12-03T16:15:08.452Z,21.38
2022-12-03T16:17:36.626Z,21.43
2022-12-03T16:20:06.910Z,21.59
2022-12-03T16:22:35.136Z,21.55
2022-12-03T16:25:05.448Z,21.52
2022-12-03T16:27:34.145Z,21.48
2022-12-03T16:30:02.526Z,21.49
2022-12-03T16:32:31.102Z,21.47
2022-12-03T16:34:59.479Z,21.44
2022-12-03T16:37:27.962Z,21.40
2022-12-03T16:39:56.810Z,21.38
2022-12-03T16:42:27.598Z,21.36
2022-12-03T16:44:58.706Z,21.35
2022-12-03T16:47:32.087Z,21.32
2022-12-03T16:50:03.061Z,21.32
2022-12-03T16:52:31.344Z,21.33
2022-12-03T16:54:59.829Z,21.33
2022-12-03T16:57:33.304Z,21.32
2022-12-03T17:00:02.531Z,21.31
2022-12-03T17:02:31.079Z,21.31
2022-12-03T17:04:59.626Z,21.30
2022-12-03T17:07:27.999Z,21.28
2022-12-03T17:09:57.007Z,21.27
2022-12-03T17:12:37.450Z,21.26
2022-12-03T17:15:14.302Z,21.29
2022-12-03T17:17:42.887Z,21.32
2022-12-03T17:20:12.852Z,21.30
2022-12-03T17:22:42.011Z,21.27
2022-12-03T17:25:11.098Z,21.26
2022-12-03T17:27:44.790Z,21.24
2022-12-03T17:30:14.236Z,21.22
2022-12-03T17:32:42.688Z,21.23
2022-12-03T17:35:11.989Z,21.21
2022-12-03T17:37:40.470Z,21.20
2022-12-03T17:40:10.798Z,21.19
2022-12-03T17:42:38.972Z,21.17
2022-12-03T17:45:08.234Z,21.16
2022-12-03T17:47:36.550Z,21.14
2022-12-03T17:50:05.852Z,21.14
2022-12-03T17:52:34.237Z,21.13
2022-12-03T17:55:11.803Z,21.12
2022-12-03T17:57:42.868Z,21.13
2022-12-03T18:00:12.165Z,21.14
2022-12-03T18:02:40.440Z,21.13
2022-12-03T18:05:09.855Z,21.11
2022-12-03T18:07:38.271Z,21.10
2022-12-03T18:10:07.837Z,21.09
2022-12-03T18:12:36.220Z,21.08
2022-12-03T18:15:05.310Z,21.08
2022-12-03T18:17:33.585Z,21.06
2022-12-03T18:20:02.582Z,21.05
2022-12-03T18:22:31.787Z,21.03
2022-12-03T18:25:00.167Z,21.02
2022-12-03T18:27:28.549Z,21.01
2022-12-03T18:29:57.464Z,21.00
2022-12-03T18:32:29.285Z,21.00
2022-12-03T18:34:58.699Z,20.99
2022-12-03T18:37:28.436Z,20.98
2022-12-03T18:39:57.893Z,20.97
2022-12-03T18:42:27.105Z,20.93
2022-12-03T18:44:57.075Z,20.93
2022-12-03T18:47:28.301Z,20.92
2022-12-03T18:49:57.231Z,20.95
2022-12-03T18:52:26.357Z,21.02
2022-12-03T18:54:55.655Z,21.11
2022-12-03T18:57:24.240Z,21.14
2022-12-03T18:59:52.748Z,21.16
2022-12-03T19:05:10.786Z,21.22
2022-12-03T19:07:39.300Z,21.27
2022-12-03T19:10:09.077Z,21.32
2022-12-03T19:12:37.864Z,21.35
2022-12-03T19:15:07.383Z,21.35
2022-12-03T19:17:36.058Z,21.37
2022-12-03T19:20:05.597Z,21.41
2022-12-03T19:22:33.841Z,21.44
2022-12-03T19:25:03.052Z,21.48
2022-12-03T19:27:32.133Z,21.52
2022-12-03T19:30:00.408Z,21.55
2022-12-03T19:32:28.893Z,21.56
2022-12-03T19:34:57.373Z,21.57
2022-12-03T19:37:25.760Z,21.57
2022-12-03T19:39:54.549Z,21.60
2022-12-03T19:42:23.946Z,21.64
2022-12-03T19:44:52.332Z,21.65
2022-12-03T19:47:21.014Z,21.65
2022-12-03T19:49:49.287Z,21.65
2022-12-03T19:52:17.671Z,21.68
2022-12-03T19:54:46.152Z,21.71
2022-12-03T19:57:19.686Z,21.80
2022-12-03T19:59:51.612Z,21.92
2022-12-03T20:02:20.330Z,21.95
2022-12-03T20:04:49.088Z,21.98
2022-12-03T20:07:17.572Z,22.02
2022-12-03T20:09:45.949Z,22.03
2022-12-03T20:12:14.533Z,22.05
2022-12-03T20:14:42.911Z,22.06
2022-12-03T20:17:11.703Z,22.07
2022-12-03T20:19:40.023Z,22.06
2022-12-03T20:22:08.665Z,22.05
2022-12-03T20:24:36.953Z,22.10
2022-12-03T20:27:05.635Z,22.09
2022-12-03T20:29:33.911Z,22.11
2022-12-03T20:32:02.380Z,22.17
2022-12-03T20:34:31.012Z,22.19
2022-12-03T20:36:59.459Z,22.16
2022-12-03T20:39:27.830Z,22.20
2022-12-03T20:41:56.073Z,22.52
2022-12-03T20:44:24.390Z,22.82
2022-12-03T20:46:52.865Z,22.89
2022-12-03T20:49:21.251Z,22.76
2022-12-03T20:51:50.673Z,22.64
2022-12-03T20:54:19.134Z,22.54
2022-12-03T20:56:47.511Z,22.46
2022-12-03T20:59:17.324Z,22.40
2022-12-03T21:01:45.999Z,22.34
2022-12-03T21:04:14.806Z,22.30
2022-12-03T21:06:43.383Z,22.30
2022-12-03T21:09:12.939Z,22.30
2022-12-03T21:11:42.805Z,22.27
2022-12-03T21:14:11.621Z,22.28
2022-12-03T21:17:09.624Z,22.29
2022-12-03T21:19:28.746Z,22.32
2022-12-03T21:21:57.314Z,22.34
2022-12-03T21:24:25.905Z,22.29
2022-12-03T21:26:54.177Z,22.25
2022-12-03T21:29:23.170Z,22.25
2022-12-03T21:31:51.553Z,22.24
2022-12-03T21:34:20.033Z,22.28
2022-12-03T21:36:48.411Z,22.24
2022-12-03T21:39:16.789Z,22.21
2022-12-03T21:42:19.393Z,22.19
2022-12-03T21:44:33.445Z,22.20
2022-12-03T21:47:12.968Z,22.23
2022-12-03T21:49:42.288Z,22.20
2022-12-03T21:52:11.258Z,22.21
2022-12-03T21:54:39.542Z,22.19
2022-12-03T21:57:08.014Z,22.18
2022-12-03T21:59:36.386Z,22.16
2022-12-03T22:02:04.976Z,22.15
2022-12-03T22:04:33.656Z,22.14
2022-12-03T22:07:02.138Z,22.13
2022-12-03T22:09:32.160Z,22.13
2022-12-03T22:12:01.298Z,22.13
2022-12-03T22:14:30.485Z,22.13
2022-12-03T22:16:58.728Z,22.12
2022-12-03T22:19:30.184Z,22.13
2022-12-03T22:21:58.764Z,22.11
2022-12-03T22:24:27.146Z,22.10
2022-12-03T22:26:55.626Z,22.10
2022-12-03T22:29:24.005Z,22.08
2022-12-03T22:31:52.692Z,22.08
2022-12-03T22:34:21.281Z,22.07
2022-12-03T22:36:49.861Z,22.07
2022-12-03T22:39:19.061Z,22.07
2022-12-03T22:41:47.438Z,22.07
2022-12-03T22:44:15.818Z,22.07
2022-12-03T22:46:44.357Z,22.06
2022-12-03T22:49:13.217Z,22.06
2022-12-03T22:51:45.693Z,22.06
2022-12-03T22:54:14.055Z,22.07
2022-12-03T22:56:42.422Z,22.08
2022-12-03T22:59:10.803Z,22.07
2022-12-03T23:01:40.855Z,22.06
2022-12-03T23:04:11.284Z,22.05
2022-12-03T23:06:40.040Z,22.05
2022-12-03T23:09:08.421Z,22.05
2022-12-03T23:11:37.723Z,22.03
2022-12-03T23:14:06.247Z,22.03
2022-12-03T23:16:34.547Z,22.02
2022-12-03T23:19:06.337Z,22.02
2022-12-03T23:21:35.637Z,22.02
2022-12-03T23:24:05.662Z,22.04
2022-12-03T23:26:36.377Z,22.03
2022-12-03T23:29:06.406Z,22.04
2022-12-03T23:31:35.180Z,22.05
2022-12-03T23:34:04.294Z,22.05
2022-12-03T23:36:33.903Z,22.06
2022-12-03T23:39:02.279Z,22.07
2022-12-03T23:41:30.663Z,22.08
2022-12-03T23:43:58.946Z,22.08
2022-12-03T23:46:27.896Z,22.09
2022-12-03T23:48:58.769Z,22.10
2022-12-03T23:51:27.256Z,22.10
2022-12-03T23:53:56.406Z,22.11
2022-12-03T23:56:30.343Z,22.11
2022-12-03T23:58:59.365Z,22.10
